Time;durP1;ratioP1;P1;durP2;ratioP2;P2;SDS_P1;SDS_P2;PMS_P1;PMS_P2;Temp;Humidity;BMP_temperature;BMP_pressure;BME280_temperature;BME280_humidity;BME280_pressure;Samples;Min_cycle;Max_cycle;Signal;HPM_P1;HPM_P2
2021/04/25 00:01:34;;;;;;;7.18;2.80;;;0.20;97.10;;;;;;5073757;28;20021;-46
2021/04/25 00:04:00;;;;;;;11.35;4.15;;;0.20;96.40;;;;;;5073610;28;20551;-46
2021/04/25 00:06:26;;;;;;;11.38;3.90;;;0.10;95.90;;;;;;5074497;28;20032;-45
2021/04/25 00:08:52;;;;;;;11.82;4.38;;;0.10;96.30;;;;;;5074536;28;20039;-47
2021/04/25 00:11:17;;;;;;;12.23;3.58;;;0.00;96.50;;;;;;5074582;28;20032;-45
2021/04/25 00:13:43;;;;;;;10.25;3.55;;;0.00;96.80;;;;;;5074280;28;20098;-46
2021/04/25 00:16:10;;;;;;;8.40;3.30;;;-0.10;96.80;;;;;;5074519;28;20040;-47
2021/04/25 00:18:37;;;;;;;9.38;3.00;;;-0.20;97.30;;;;;;5073305;28;20046;-49
2021/04/25 00:21:03;;;;;;;8.75;3.33;;;-0.20;97.90;;;;;;5074639;28;20029;-45
2021/04/25 00:23:28;;;;;;;9.63;3.00;;;-0.30;97.60;;;;;;5056191;28;20021;-47
2021/04/25 00:25:54;;;;;;;6.78;2.72;;;-0.30;98.10;;;;;;5074193;28;20032;-47
2021/04/25 00:28:19;;;;;;;7.45;2.97;;;-0.30;98.50;;;;;;5074090;28;20028;-44
2021/04/25 00:30:45;;;;;;;7.95;3.10;;;-0.40;98.50;;;;;;5073691;28;20357;-45
2021/04/25 00:33:10;;;;;;;5.90;3.10;;;-0.40;98.80;;;;;;5073264;28;20503;-49
2021/04/25 00:35:36;;;;;;;6.00;2.83;;;-0.40;99.50;;;;;;5073884;28;20033;-45
2021/04/25 00:38:03;;;;;;;5.50;2.92;;;-0.50;99.60;;;;;;5073971;28;20375;-48
2021/04/25 00:40:28;;;;;;;7.82;3.17;;;-0.50;99.90;;;;;;5073862;28;20035;-45
2021/04/25 00:42:54;;;;;;;7.32;2.95;;;-0.60;99.60;;;;;;5073528;28;20056;-50
2021/04/25 00:45:19;;;;;;;6.32;2.88;;;-0.60;99.90;;;;;;5073943;28;20033;-47
2021/04/25 00:47:48;;;;;;;9.75;3.40;;;-0.70;99.90;;;;;;5073517;28;20119;-46
2021/04/25 00:50:16;;;;;;;7.80;3.65;;;-0.80;99.90;;;;;;5072986;28;20507;-46
2021/04/25 00:52:44;;;;;;;8.82;2.92;;;-0.80;99.90;;;;;;5076525;28;20438;-45
2021/04/25 00:55:12;;;;;;;6.88;2.60;;;-0.80;99.90;;;;;;5073865;28;20037;-46
2021/04/25 00:57:38;;;;;;;7.60;2.55;;;-0.80;99.90;;;;;;5073296;28;20024;-48
2021/04/25 01:00:07;;;;;;;5.70;2.65;;;-0.90;99.90;;;;;;5073515;28;20025;-46
2021/04/25 01:02:33;;;;;;;6.47;2.67;;;-0.90;99.90;;;;;;5055420;28;20111;-45
2021/04/25 01:04:59;;;;;;;9.48;3.50;;;-0.90;99.90;;;;;;5072639;28;20107;-47
2021/04/25 01:07:24;;;;;;;6.97;2.90;;;-1.00;99.90;;;;;;5073335;28;20047;-47
2021/04/25 01:09:49;;;;;;;6.63;2.83;;;-1.00;99.90;;;;;;5073393;28;20047;-45
2021/04/25 01:12:15;;;;;;;5.50;2.65;;;-1.00;99.90;;;;;;5072711;28;20016;-47
2021/04/25 01:14:40;;;;;;;9.30;2.75;;;-1.10;99.90;;;;;;5073282;28;20025;-45
2021/04/25 01:17:06;;;;;;;9.70;4.07;;;-1.10;99.90;;;;;;5072814;28;20028;-46
2021/04/25 01:19:32;;;;;;;8.82;4.10;;;-1.10;99.90;;;;;;5072463;28;20043;-45
2021/04/25 01:21:57;;;;;;;7.97;4.00;;;-1.20;99.90;;;;;;5072940;28;20029;-47
2021/04/25 01:24:23;;;;;;;9.60;3.83;;;-1.20;99.90;;;;;;5073384;28;20095;-45
2021/04/25 01:26:48;;;;;;;9.77;3.40;;;-1.20;99.90;;;;;;5072772;28;20020;-46
2021/04/25 01:29:14;;;;;;;8.68;3.53;;;-1.20;99.90;;;;;;5073184;28;20021;-48
2021/04/25 01:31:40;;;;;;;10.35;3.53;;;-1.30;99.90;;;;;;5072545;28;20123;-48
2021/04/25 01:34:05;;;;;;;5.95;2.72;;;-1.30;99.90;;;;;;5072107;28;20040;-45
2021/04/25 01:36:31;;;;;;;7.78;3.08;;;-1.30;99.90;;;;;;5072837;28;20074;-45
2021/04/25 01:38:57;;;;;;;10.38;2.72;;;-1.30;99.90;;;;;;5072832;28;20035;-45
2021/04/25 01:41:22;;;;;;;5.95;2.85;;;-1.30;99.90;;;;;;5073977;28;20048;-46
2021/04/25 01:43:48;;;;;;;8.45;3.38;;;-1.40;99.90;;;;;;5074626;28;20036;-46
2021/04/25 01:46:15;;;;;;;6.75;3.03;;;-1.40;99.90;;;;;;5074231;28;20059;-48
2021/04/25 01:48:42;;;;;;;8.98;3.30;;;-1.40;99.90;;;;;;5073619;28;20035;-46
2021/04/25 01:51:08;;;;;;;10.50;3.97;;;-1.50;99.90;;;;;;5080703;28;20043;-45
2021/04/25 01:53:33;;;;;;;11.13;3.40;;;-1.50;99.90;;;;;;5094509;28;20028;-45
2021/04/25 01:55:59;;;;;;;7.85;3.20;;;-1.40;99.90;;;;;;5094334;28;20024;-46
2021/04/25 01:58:25;;;;;;;8.93;3.30;;;-1.40;99.90;;;;;;5094662;28;20028;-48
2021/04/25 02:00:50;;;;;;;7.57;2.40;;;-1.40;99.90;;;;;;5094098;28;20112;-46
2021/04/25 02:03:16;;;;;;;6.70;3.53;;;-1.30;99.90;;;;;;5093622;28;20046;-47
2021/04/25 02:05:42;;;;;;;8.40;3.50;;;-1.20;99.90;;;;;;5094389;28;20095;-47
2021/04/25 02:08:10;;;;;;;7.30;3.40;;;-1.10;99.90;;;;;;5094395;28;20364;-46
2021/04/25 02:10:36;;;;;;;5.75;2.75;;;-1.00;99.90;;;;;;5094386;28;20069;-45
2021/04/25 02:13:03;;;;;;;5.00;2.65;;;-0.90;99.90;;;;;;5094153;28;20036;-45
2021/04/25 02:15:29;;;;;;;8.80;2.70;;;-0.90;99.90;;;;;;5093933;28;20031;-45
2021/04/25 02:17:54;;;;;;;6.90;2.97;;;-0.80;99.90;;;;;;5093132;28;20020;-44
2021/04/25 02:20:21;;;;;;;9.20;3.22;;;-0.80;99.90;;;;;;5094145;28;20100;-45
2021/04/25 02:22:47;;;;;;;5.35;3.08;;;-0.70;99.90;;;;;;5093979;28;20039;-46
2021/04/25 02:25:15;;;;;;;5.20;2.78;;;-0.70;99.90;;;;;;5093080;28;20031;-46
2021/04/25 02:27:41;;;;;;;7.32;2.90;;;-0.60;99.90;;;;;;5093778;28;20111;-47
2021/04/25 02:30:10;;;;;;;3.75;2.00;;;-0.50;99.90;;;;;;5093749;28;20109;-45
2021/04/25 02:32:36;;;;;;;6.20;2.83;;;-0.40;99.90;;;;;;5093663;28;20557;-44
2021/04/25 02:35:04;;;;;;;4.35;2.03;;;-0.30;99.90;;;;;;5092783;28;20024;-44
2021/04/25 02:37:29;;;;;;;7.28;3.03;;;-0.20;99.90;;;;;;5093532;28;20027;-45
2021/04/25 02:39:55;;;;;;;4.38;2.80;;;-0.20;99.90;;;;;;5093720;28;20108;-47
2021/04/25 02:42:20;;;;;;;7.07;3.08;;;-0.10;99.90;;;;;;5075342;28;20488;-47
2021/04/25 02:44:46;;;;;;;8.95;3.60;;;0.00;99.90;;;;;;5075198;28;20479;-46
2021/04/25 02:47:11;;;;;;;5.03;3.15;;;0.10;99.90;;;;;;5073128;28;20020;-46
2021/04/25 02:49:37;;;;;;;6.22;3.03;;;0.10;99.90;;;;;;5072431;28;20032;-46
2021/04/25 02:52:02;;;;;;;4.70;2.72;;;0.20;99.90;;;;;;5087163;28;20028;-46
2021/04/25 02:54:28;;;;;;;5.88;2.95;;;0.20;99.90;;;;;;5093541;28;20028;-47
2021/04/25 02:56:54;;;;;;;4.28;2.50;;;0.30;99.90;;;;;;5093147;28;20039;-45
2021/04/25 02:59:20;;;;;;;3.40;2.30;;;0.30;99.90;;;;;;5093361;28;20027;-47
2021/04/25 03:01:45;;;;;;;7.43;2.90;;;0.30;99.90;;;;;;5093199;28;20028;-49
2021/04/25 03:04:11;;;;;;;6.00;2.60;;;0.40;99.90;;;;;;5092375;28;20043;-45
2021/04/25 03:06:36;;;;;;;3.85;2.20;;;0.40;99.90;;;;;;5093126;28;20040;-46
2021/04/25 03:09:02;;;;;;;2.83;1.80;;;0.40;99.90;;;;;;5093128;28;20089;-45
2021/04/25 03:11:28;;;;;;;4.80;2.00;;;0.50;99.90;;;;;;5093104;28;20115;-46
2021/04/25 03:13:53;;;;;;;4.47;2.10;;;0.50;99.90;;;;;;5092900;28;20111;-45
2021/04/25 03:16:19;;;;;;;6.63;2.53;;;0.60;99.90;;;;;;5092851;28;20024;-47
2021/04/25 03:18:45;;;;;;;4.63;2.28;;;0.70;99.90;;;;;;5092107;28;20019;-45
2021/04/25 03:21:10;;;;;;;8.80;2.40;;;0.70;99.90;;;;;;5088059;28;20380;-47
2021/04/25 03:23:36;;;;;;;4.55;2.45;;;0.60;99.90;;;;;;5092939;28;20021;-46
2021/04/25 03:26:01;;;;;;;6.13;2.45;;;0.50;99.90;;;;;;5093020;28;20035;-46
2021/04/25 03:28:26;;;;;;;3.15;1.95;;;0.40;99.90;;;;;;5092761;28;20413;-46
2021/04/25 03:30:53;;;;;;;5.43;2.30;;;0.20;99.90;;;;;;5092876;28;20028;-46
2021/04/25 03:33:19;;;;;;;3.70;2.35;;;0.10;99.90;;;;;;5091684;28;20028;-45
2021/04/25 03:35:44;;;;;;;4.40;1.90;;;0.00;99.90;;;;;;5092567;28;20089;-46
2021/04/25 03:38:10;;;;;;;4.78;2.05;;;-0.10;99.90;;;;;;5092671;28;20124;-45
2021/04/25 03:40:36;;;;;;;7.40;2.40;;;-0.20;99.90;;;;;;5092810;28;20020;-46
2021/04/25 03:43:01;;;;;;;2.83;1.85;;;-0.30;99.90;;;;;;5088661;28;20072;-45
2021/04/25 03:45:28;;;;;;;3.72;1.70;;;-0.30;99.90;;;;;;5072615;28;20066;-45
2021/04/25 03:47:53;;;;;;;2.88;1.75;;;-0.30;99.90;;;;;;5071319;28;20025;-45
2021/04/25 03:50:21;;;;;;;5.00;1.85;;;-0.20;99.90;;;;;;5054472;28;20032;-47
2021/04/25 03:52:47;;;;;;;3.75;2.00;;;-0.10;99.90;;;;;;5052344;28;20032;-45
2021/04/25 03:55:15;;;;;;;4.22;2.10;;;0.00;99.90;;;;;;5052316;28;20031;-45
2021/04/25 03:57:40;;;;;;;2.58;1.60;;;0.10;99.90;;;;;;5052178;28;20017;-47
2021/04/25 04:00:08;;;;;;;3.20;2.00;;;0.20;99.90;;;;;;5052279;28;20027;-45
2021/04/25 04:02:34;;;;;;;3.63;1.85;;;0.40;99.90;;;;;;5052182;28;20025;-47
2021/04/25 04:05:00;;;;;;;4.03;1.67;;;0.50;99.90;;;;;;5051270;28;20027;-45
2021/04/25 04:07:25;;;;;;;6.43;2.00;;;0.60;99.90;;;;;;5052214;28;20079;-47
2021/04/25 04:09:52;;;;;;;4.00;1.98;;;0.70;99.90;;;;;;5052318;28;20189;-47
2021/04/25 04:12:18;;;;;;;4.68;2.00;;;0.80;99.90;;;;;;5051902;28;20092;-46
2021/04/25 04:14:43;;;;;;;4.88;2.75;;;0.90;99.90;;;;;;5052335;28;20112;-45
2021/04/25 04:17:09;;;;;;;8.07;3.10;;;0.90;99.90;;;;;;5051924;28;20025;-46
2021/04/25 04:19:34;;;;;;;4.45;2.35;;;1.00;99.90;;;;;;5051087;28;20035;-47
2021/04/25 04:22:00;;;;;;;5.95;2.90;;;1.10;99.90;;;;;;5051978;28;20021;-47
2021/04/25 04:24:26;;;;;;;4.93;2.00;;;1.10;99.90;;;;;;5052204;28;20104;-47
2021/04/25 04:26:51;;;;;;;3.72;2.03;;;1.20;99.90;;;;;;5051853;28;20032;-47
2021/04/25 04:29:17;;;;;;;3.08;2.10;;;1.30;99.90;;;;;;5054217;28;20036;-46
2021/04/25 04:31:42;;;;;;;5.88;2.25;;;1.30;99.90;;;;;;5071765;28;20075;-47
2021/04/25 04:34:08;;;;;;;4.50;2.25;;;1.30;99.90;;;;;;5070658;28;20086;-46
2021/04/25 04:36:33;;;;;;;3.25;1.52;;;1.40;99.90;;;;;;5071893;28;20036;-47
2021/04/25 04:38:59;;;;;;;4.70;1.80;;;1.50;99.90;;;;;;5071499;28;20029;-46
2021/04/25 04:41:24;;;;;;;2.65;1.52;;;1.60;99.90;;;;;;5071752;28;20021;-46
2021/04/25 04:43:50;;;;;;;4.75;2.22;;;1.70;99.90;;;;;;5061413;28;20029;-45
2021/04/25 04:46:15;;;;;;;3.53;2.03;;;1.80;99.90;;;;;;5051808;28;20051;-46
2021/04/25 04:48:41;;;;;;;8.98;2.30;;;1.90;99.90;;;;;;5053752;28;20099;-45
2021/04/25 04:51:06;;;;;;;3.67;1.90;;;2.00;99.90;;;;;;5068065;28;20475;-45
2021/04/25 04:53:32;;;;;;;4.57;2.03;;;2.00;99.90;;;;;;5095777;28;20062;-45
2021/04/25 04:55:57;;;;;;;1.95;1.30;;;2.10;99.90;;;;;;5095607;28;20052;-46
2021/04/25 04:58:23;;;;;;;3.47;2.13;;;2.20;99.90;;;;;;5095537;28;20090;-45
2021/04/25 05:00:48;;;;;;;4.90;2.00;;;2.30;99.90;;;;;;5095818;28;20031;-46
2021/04/25 05:03:15;;;;;;;2.92;1.83;;;2.30;99.90;;;;;;5094522;28;20020;-44
2021/04/25 05:05:41;;;;;;;4.32;1.90;;;2.40;99.90;;;;;;5095575;28;20043;-46
2021/04/25 05:08:06;;;;;;;2.72;1.60;;;2.50;99.90;;;;;;5095408;28;20024;-46
2021/04/25 05:10:32;;;;;;;2.28;1.75;;;2.60;99.90;;;;;;5095507;28;20024;-45
2021/04/25 05:12:57;;;;;;;3.65;1.92;;;2.60;99.90;;;;;;5090400;28;20078;-47
2021/04/25 05:15:23;;;;;;;1.95;1.42;;;2.80;99.90;;;;;;5095391;28;20028;-47
2021/04/25 05:17:48;;;;;;;3.38;1.63;;;2.90;99.90;;;;;;5094331;28;20016;-49
2021/04/25 05:20:14;;;;;;;4.15;1.85;;;2.90;99.40;;;;;;5095170;28;20474;-45
2021/04/25 05:22:40;;;;;;;4.82;1.92;;;3.00;99.30;;;;;;5095246;28;20017;-48
2021/04/25 05:25:07;;;;;;;3.22;1.63;;;3.10;99.30;;;;;;5095231;28;20051;-47
2021/04/25 05:27:32;;;;;;;4.10;2.05;;;3.20;99.00;;;;;;5094949;28;20020;-47
2021/04/25 05:29:58;;;;;;;1.67;1.42;;;3.30;98.80;;;;;;5095145;28;20030;-45
2021/04/25 05:32:23;;;;;;;5.78;1.65;;;3.50;98.30;;;;;;5094937;28;20021;-47
2021/04/25 05:34:49;;;;;;;3.78;1.50;;;3.60;97.70;;;;;;5094109;28;20017;-47
2021/04/25 05:37:15;;;;;;;3.03;1.52;;;3.80;96.70;;;;;;5094706;28;20051;-47
2021/04/25 05:39:40;;;;;;;5.65;1.40;;;3.90;95.30;;;;;;5094983;28;20484;-46
2021/04/25 05:42:06;;;;;;;4.90;1.55;;;4.00;94.90;;;;;;5094299;28;20055;-46
2021/04/25 05:44:32;;;;;;;4.70;1.90;;;4.20;94.30;;;;;;5078526;28;20033;-46
2021/04/25 05:46:57;;;;;;;2.97;1.48;;;4.30;93.90;;;;;;5074599;28;20111;-45
2021/04/25 05:49:23;;;;;;;3.50;1.42;;;4.50;93.30;;;;;;5073530;28;20029;-47
2021/04/25 05:51:49;;;;;;;2.95;1.58;;;4.60;92.60;;;;;;5086490;28;20024;-47
2021/04/25 05:54:15;;;;;;;4.97;1.50;;;4.80;92.40;;;;;;5094557;28;20035;-47
2021/04/25 05:56:41;;;;;;;2.38;1.27;;;5.00;91.90;;;;;;5094517;28;20035;-46
2021/04/25 05:59:06;;;;;;;2.90;1.52;;;5.20;91.40;;;;;;5094227;28;20106;-48
2021/04/25 06:01:32;;;;;;;3.63;1.65;;;5.40;90.90;;;;;;5094368;28;20107;-47
2021/04/25 06:03:57;;;;;;;3.83;2.13;;;5.70;90.40;;;;;;5093548;28;20035;-47
2021/04/25 06:06:24;;;;;;;4.57;1.70;;;5.90;89.50;;;;;;5094323;28;20028;-48
2021/04/25 06:08:50;;;;;;;4.35;1.45;;;6.30;87.80;;;;;;5094344;28;20031;-47
2021/04/25 06:11:15;;;;;;;2.90;2.25;;;6.60;86.80;;;;;;5094221;28;20024;-46
2021/04/25 06:13:41;;;;;;;3.00;1.83;;;6.90;85.00;;;;;;5094194;28;20028;-47
2021/04/25 06:16:06;;;;;;;3.33;1.50;;;7.10;83.60;;;;;;5094169;28;20039;-46
2021/04/25 06:18:32;;;;;;;4.50;1.65;;;7.30;82.10;;;;;;5093220;28;20032;-48
2021/04/25 06:20:58;;;;;;;3.05;1.60;;;7.40;79.30;;;;;;5094104;28;20379;-47
2021/04/25 06:23:24;;;;;;;1.67;1.02;;;7.60;79.40;;;;;;5093950;28;20024;-46
2021/04/25 06:25:49;;;;;;;2.92;1.30;;;7.70;79.40;;;;;;5094186;28;20027;-47
2021/04/25 06:28:15;;;;;;;3.10;1.65;;;7.90;77.80;;;;;;5085623;28;20107;-47
2021/04/25 06:30:41;;;;;;;2.88;1.30;;;8.00;77.50;;;;;;5058714;28;20501;-48
2021/04/25 06:33:07;;;;;;;3.60;1.48;;;8.10;76.20;;;;;;5067493;28;20483;-50
2021/04/25 06:35:33;;;;;;;4.50;1.92;;;8.20;76.40;;;;;;5071840;28;20050;-50
2021/04/25 06:37:58;;;;;;;3.28;1.92;;;8.30;75.70;;;;;;5071558;28;20020;-50
2021/04/25 06:40:24;;;;;;;4.72;2.40;;;8.50;75.00;;;;;;5071635;28;20032;-47
2021/04/25 06:42:49;;;;;;;3.38;2.78;;;8.70;74.40;;;;;;5071387;28;20446;-50
2021/04/25 06:45:17;;;;;;;3.47;1.85;;;9.00;73.50;;;;;;5071472;28;20028;-52
2021/04/25 06:47:43;;;;;;;2.75;1.20;;;9.30;72.80;;;;;;5052801;28;20471;-49
2021/04/25 06:50:12;;;;;;;3.22;1.50;;;9.50;71.00;;;;;;5071686;28;20029;-47
2021/04/25 06:52:38;;;;;;;2.35;1.10;;;9.70;68.30;;;;;;5084051;28;20356;-49
2021/04/25 06:55:05;;;;;;;2.25;1.25;;;9.90;68.30;;;;;;5071508;28;20145;-46
2021/04/25 06:57:30;;;;;;;2.63;1.23;;;10.00;67.20;;;;;;5071365;28;20123;-48
2021/04/25 06:59:56;;;;;;;2.97;1.10;;;10.00;66.40;;;;;;5071564;28;20024;-49
2021/04/25 07:02:22;;;;;;;1.27;1.17;;;10.00;66.60;;;;;;5066986;28;20421;-48
2021/04/25 07:04:47;;;;;;;4.60;1.10;;;9.90;66.30;;;;;;5062714;28;20023;-47
2021/04/25 07:07:13;;;;;;;1.77;1.15;;;9.70;65.30;;;;;;5071095;28;20024;-47
2021/04/25 07:09:40;;;;;;;2.80;1.30;;;9.50;65.40;;;;;;5070570;28;20107;-49
2021/04/25 07:12:06;;;;;;;2.47;1.00;;;9.30;64.20;;;;;;5071097;28;20486;-47
2021/04/25 07:14:31;;;;;;;1.30;0.85;;;9.20;64.10;;;;;;5071109;28;20060;-48
2021/04/25 07:16:57;;;;;;;2.25;0.95;;;9.20;63.40;;;;;;5067590;28;20060;-50
2021/04/25 07:19:22;;;;;;;3.13;1.20;;;9.30;63.20;;;;;;5069791;28;20052;-48
2021/04/25 07:21:48;;;;;;;2.95;0.75;;;9.50;63.90;;;;;;5052849;28;20025;-49
2021/04/25 07:24:13;;;;;;;3.17;1.00;;;9.60;62.20;;;;;;5070685;28;20036;-48
2021/04/25 07:26:39;;;;;;;1.95;0.90;;;10.00;61.70;;;;;;5070661;28;20113;-48
2021/04/25 07:29:04;;;;;;;1.85;0.50;;;10.60;61.60;;;;;;5070979;28;20024;-48
2021/04/25 07:31:30;;;;;;;1.52;0.50;;;10.90;60.00;;;;;;5070463;28;20025;-48
2021/04/25 07:33:55;;;;;;;1.58;0.60;;;11.00;58.90;;;;;;5069884;28;20025;-51
2021/04/25 07:36:21;;;;;;;1.33;0.65;;;11.10;59.30;;;;;;5070679;28;20033;-47
2021/04/25 07:38:47;;;;;;;3.30;0.80;;;11.00;59.50;;;;;;5070373;28;20016;-48
2021/04/25 07:41:12;;;;;;;1.58;0.50;;;10.90;56.60;;;;;;5070697;28;20024;-47
2021/04/25 07:43:38;;;;;;;1.50;0.50;;;10.80;57.60;;;;;;5070342;28;20040;-49
2021/04/25 07:46:04;;;;;;;0.63;0.60;;;10.80;56.90;;;;;;5070925;28;20036;-48
2021/04/25 07:48:30;;;;;;;2.22;0.70;;;10.90;57.50;;;;;;5069267;28;20057;-49
2021/04/25 07:50:55;;;;;;;0.63;0.50;;;10.90;55.40;;;;;;5058937;28;20024;-47
2021/04/25 07:53:21;;;;;;;0.60;0.47;;;10.70;56.50;;;;;;5091909;28;20031;-48
2021/04/25 07:55:47;;;;;;;1.85;0.60;;;10.50;56.20;;;;;;5092579;28;20471;-47
2021/04/25 07:58:12;;;;;;;0.45;0.32;;;10.30;57.50;;;;;;5092397;28;20039;-47
2021/04/25 08:00:38;;;;;;;0.68;0.40;;;10.10;57.50;;;;;;5092548;28;20086;-49
2021/04/25 08:03:04;;;;;;;0.95;0.52;;;9.90;57.00;;;;;;5091531;28;20187;-47
2021/04/25 08:05:30;;;;;;;1.30;0.93;;;9.80;57.70;;;;;;5092206;28;20036;-47
2021/04/25 08:07:56;;;;;;;1.75;0.50;;;9.70;57.70;;;;;;5092033;28;20039;-49
2021/04/25 08:10:21;;;;;;;1.23;0.40;;;9.70;58.00;;;;;;5092216;28;20372;-48
2021/04/25 08:12:47;;;;;;;1.27;0.32;;;9.60;58.10;;;;;;5092086;28;20028;-45
2021/04/25 08:15:12;;;;;;;0.85;0.43;;;9.60;57.40;;;;;;5092313;28;20361;-46
2021/04/25 08:17:38;;;;;;;1.65;0.52;;;9.50;57.60;;;;;;5092066;28;20028;-48
2021/04/25 08:20:05;;;;;;;1.13;0.60;;;9.40;57.10;;;;;;5091935;28;20036;-48
2021/04/25 08:22:30;;;;;;;2.97;0.80;;;9.30;57.90;;;;;;5093459;28;20548;-46
2021/04/25 08:24:56;;;;;;;1.17;0.70;;;9.10;58.30;;;;;;5096368;28;20028;-49
2021/04/25 08:27:22;;;;;;;2.47;0.50;;;9.10;58.10;;;;;;5096534;28;20046;-49
2021/04/25 08:29:47;;;;;;;1.27;0.70;;;9.00;58.20;;;;;;5096235;28;20069;-47
2021/04/25 08:32:13;;;;;;;2.20;0.60;;;8.90;58.50;;;;;;5078631;28;20107;-47
2021/04/25 08:34:38;;;;;;;0.63;0.43;;;8.90;58.50;;;;;;5075012;28;20475;-47
2021/04/25 08:37:04;;;;;;;3.22;0.60;;;8.90;58.90;;;;;;5075974;28;20032;-48
2021/04/25 08:39:29;;;;;;;2.40;0.60;;;8.90;59.20;;;;;;5075568;28;20021;-47
2021/04/25 08:41:55;;;;;;;3.03;0.70;;;9.00;59.30;;;;;;5075781;28;20048;-48
2021/04/25 08:44:21;;;;;;;4.30;0.52;;;9.10;59.40;;;;;;5075774;28;20466;-48
2021/04/25 08:46:49;;;;;;;1.58;0.60;;;9.20;59.40;;;;;;5075854;28;20037;-51
2021/04/25 08:49:21;;;;;;;0.85;0.40;;;9.30;59.70;;;;;;5074804;28;20035;-49
2021/04/25 08:51:48;;;;;;;0.50;0.50;;;9.40;59.70;;;;;;5087456;28;20024;-53
2021/04/25 08:54:14;;;;;;;0.90;0.47;;;9.60;59.90;;;;;;5096049;28;20047;-50
2021/04/25 08:56:40;;;;;;;3.60;0.63;;;9.70;60.00;;;;;;5095802;28;20028;-53
2021/04/25 08:59:06;;;;;;;1.60;0.60;;;9.90;60.00;;;;;;5095768;28;20024;-53
2021/04/25 09:01:31;;;;;;;3.22;0.80;;;10.00;59.70;;;;;;5095772;28;20048;-52
2021/04/25 09:03:57;;;;;;;0.40;0.40;;;10.10;59.50;;;;;;5094728;28;20471;-55
2021/04/25 09:06:22;;;;;;;0.77;0.57;;;10.20;59.70;;;;;;5095633;28;20032;-52
2021/04/25 09:08:56;;;;;;;1.30;0.70;;;10.20;59.50;;;;;;5095505;28;20024;-52
2021/04/25 09:11:30;;;;;;;0.70;0.60;;;10.30;59.30;;;;;;5095640;28;20032;-54
2021/04/25 09:14:17;;;;;;;1.25;0.90;;;10.30;59.30;;;;;;5095512;28;20379;-54
2021/04/25 09:16:45;;;;;;;1.38;0.65;;;10.40;58.90;;;;;;5095318;28;20414;-53
2021/04/25 09:19:11;;;;;;;2.95;0.88;;;10.40;59.40;;;;;;5094358;28;20023;-55
2021/04/25 09:21:59;;;;;;;1.48;0.50;;;10.70;59.40;;;;;;5095323;28;20020;-53
2021/04/25 09:24:29;;;;;;;1.65;0.90;;;11.20;58.60;;;;;;5095135;28;20048;-48
2021/04/25 09:26:56;;;;;;;1.20;0.70;;;11.60;58.30;;;;;;5095417;28;20124;-53
2021/04/25 09:29:25;;;;;;;2.53;0.90;;;11.70;58.20;;;;;;5094996;28;20420;-53
2021/04/25 09:31:52;;;;;;;2.05;0.70;;;11.80;57.90;;;;;;5080551;28;20562;-54
2021/04/25 09:34:29;;;;;;;3.28;1.05;;;11.90;57.70;;;;;;5073375;28;20033;-51
2021/04/25 09:36:56;;;;;;;1.92;0.73;;;12.30;56.80;;;;;;5074831;28;20025;-49
2021/04/25 09:39:23;;;;;;;1.50;0.90;;;12.60;57.00;;;;;;5074714;28;20020;-51
2021/04/25 09:41:49;;;;;;;1.42;0.70;;;12.60;57.20;;;;;;5074305;28;20040;-52
2021/04/25 09:44:37;;;;;;;1.25;0.73;;;12.60;57.30;;;;;;5074755;28;20154;-53
2021/04/25 09:47:04;;;;;;;1.80;0.75;;;12.50;56.60;;;;;;5074672;28;20025;-52
2021/04/25 09:49:49;;;;;;;4.47;1.30;;;12.60;57.90;;;;;;5073527;28;20016;-53
2021/04/25 09:52:34;;;;;;;3.17;1.10;;;12.80;56.40;;;;;;5090250;28;20045;-51
2021/04/25 09:55:12;;;;;;;4.53;1.08;;;12.90;56.40;;;;;;5094434;28;20483;-52
2021/04/25 09:57:38;;;;;;;1.40;0.90;;;13.20;57.00;;;;;;5094496;28;20030;-48
2021/04/25 10:00:05;;;;;;;1.50;1.05;;;13.50;57.20;;;;;;5094551;28;20033;-47
2021/04/25 10:02:32;;;;;;;3.58;1.20;;;13.70;56.80;;;;;;5094529;28;20055;-48
2021/04/25 10:05:06;;;;;;;2.10;1.35;;;13.80;56.40;;;;;;5094239;28;20015;-47
2021/04/25 10:07:35;;;;;;;1.23;0.95;;;13.70;56.40;;;;;;5098647;28;20024;-50
2021/04/25 10:10:15;;;;;;;3.45;1.45;;;13.80;56.50;;;;;;5095481;28;20028;-48
2021/04/25 10:12:42;;;;;;;2.33;1.42;;;13.90;56.00;;;;;;5096282;28;20031;-48
2021/04/25 10:15:10;;;;;;;2.97;0.90;;;13.90;56.20;;;;;;5094236;28;20020;-48
2021/04/25 10:17:40;;;;;;;3.35;1.20;;;13.90;56.00;;;;;;5093596;28;20479;-50
2021/04/25 10:20:07;;;;;;;4.18;1.60;;;13.90;55.80;;;;;;5094283;28;20467;-47
2021/04/25 10:22:32;;;;;;;3.13;1.30;;;13.80;55.70;;;;;;5094268;28;20028;-47
2021/04/25 10:24:59;;;;;;;2.53;1.23;;;13.80;55.70;;;;;;5093862;28;20101;-48
2021/04/25 10:27:27;;;;;;;1.50;0.90;;;14.00;55.60;;;;;;5097059;28;20016;-49
2021/04/25 10:29:57;;;;;;;1.83;0.90;;;14.20;55.20;;;;;;5076580;28;20480;-49
2021/04/25 10:32:23;;;;;;;1.83;0.95;;;14.30;54.70;;;;;;5072791;28;20103;-50
2021/04/25 10:35:19;;;;;;;3.70;1.33;;;14.30;54.50;;;;;;5072345;28;20039;-48
2021/04/25 10:37:46;;;;;;;3.05;0.90;;;14.40;53.50;;;;;;5073368;28;20495;-52
2021/04/25 10:40:29;;;;;;;1.42;1.08;;;14.30;55.00;;;;;;5073526;28;20028;-49
2021/04/25 10:43:02;;;;;;;3.10;1.35;;;14.20;53.20;;;;;;5072550;28;20036;-49
2021/04/25 10:45:34;;;;;;;3.10;1.73;;;13.90;53.20;;;;;;5072101;28;20495;-47
2021/04/25 10:48:17;;;;;;;2.20;1.27;;;13.50;51.50;;;;;;5072539;28;20100;-48
2021/04/25 10:50:46;;;;;;;3.17;0.98;;;13.50;52.00;;;;;;5076049;28;20065;-48
2021/04/25 10:53:31;;;;;;;2.42;1.27;;;13.60;53.10;;;;;;5072476;28;20078;-48
2021/04/25 10:56:12;;;;;;;5.80;4.05;;;13.80;52.20;;;;;;5072683;28;20113;-47
2021/04/25 10:58:43;;;;;;;17.58;11.80;;;14.00;51.20;;;;;;5073365;28;20105;-49
2021/04/25 11:01:29;;;;;;;69.80;47.78;;;13.90;51.20;;;;;;5072608;28;20032;-49
2021/04/25 11:03:54;;;;;;;21.83;14.55;;;13.90;51.50;;;;;;5071964;28;20117;-48
2021/04/25 11:06:25;;;;;;;15.68;12.00;;;13.60;50.50;;;;;;5072668;28;20475;-48
2021/04/25 11:08:52;;;;;;;9.70;4.90;;;13.50;51.10;;;;;;5073075;28;20041;-48
2021/04/25 11:11:36;;;;;;;8.82;5.53;;;13.70;51.40;;;;;;5072680;28;20024;-48
2021/04/25 11:14:03;;;;;;;5.78;3.80;;;13.80;51.00;;;;;;5073028;28;20385;-48
2021/04/25 11:16:30;;;;;;;5.03;2.90;;;13.90;51.20;;;;;;5072447;28;20032;-48
2021/04/25 11:19:06;;;;;;;4.60;1.77;;;14.00;51.10;;;;;;5071488;28;20108;-48
2021/04/25 11:21:32;;;;;;;3.47;1.70;;;13.90;50.40;;;;;;5064514;28;20025;-47
2021/04/25 11:24:04;;;;;;;7.35;3.88;;;13.80;48.80;;;;;;5072323;28;20874;-47
2021/04/25 11:26:36;;;;;;;125.78;83.10;;;13.50;49.50;;;;;;5060964;28;20185;-47
2021/04/25 11:29:16;;;;;;;48.78;31.42;;;13.40;50.40;;;;;;5061071;28;20032;-49
2021/04/25 11:34:25;;;;;;;13.70;8.27;;;13.10;49.20;;;;;;5070824;28;20031;-51
2021/04/25 11:36:56;;;;;;;9.68;5.30;;;13.10;49.70;;;;;;5063062;28;20029;-51
2021/04/25 11:39:28;;;;;;;5.55;3.95;;;13.40;50.00;;;;;;5072708;28;20387;-47
2021/04/25 11:41:53;;;;;;;3.72;2.63;;;13.80;49.70;;;;;;5071925;28;20032;-49
2021/04/25 11:44:37;;;;;;;3.33;1.52;;;14.00;49.20;;;;;;5071990;28;20028;-49
2021/04/25 11:47:07;;;;;;;3.95;1.95;;;14.10;47.80;;;;;;5072262;28;20028;-49
2021/04/25 11:49:39;;;;;;;2.30;1.30;;;14.10;49.10;;;;;;5071418;28;20024;-48
2021/04/25 11:52:15;;;;;;;2.67;1.13;;;14.00;49.10;;;;;;5086785;28;20020;-50
2021/04/25 11:54:42;;;;;;;2.40;1.13;;;13.80;46.10;;;;;;5092646;28;20024;-51
2021/04/25 11:57:13;;;;;;;1.65;0.75;;;13.30;47.50;;;;;;5073101;28;20044;-47
2021/04/25 11:59:59;;;;;;;2.30;0.93;;;12.90;48.60;;;;;;5069185;28;20035;-48
2021/04/25 12:02:30;;;;;;;0.73;0.73;;;12.80;49.00;;;;;;5072592;28;20028;-45
2021/04/25 12:05:03;;;;;;;0.57;0.52;;;12.70;48.90;;;;;;5069558;28;20062;-47
2021/04/25 12:07:41;;;;;;;33.70;17.90;;;12.60;48.40;;;;;;5069517;28;20040;-49
2021/04/25 12:10:13;;;;;;;9.80;4.75;;;12.70;47.00;;;;;;5071814;28;20031;-47
2021/04/25 12:13:16;;;;;;;3.03;1.60;;;12.60;46.40;;;;;;5072390;28;20021;-47
2021/04/25 12:16:05;;;;;;;4.70;1.30;;;12.50;43.30;;;;;;5072152;28;20035;-48
2021/04/25 12:18:36;;;;;;;1.15;0.80;;;12.30;44.20;;;;;;5050564;28;20045;-47
2021/04/25 12:21:08;;;;;;;2.85;1.05;;;12.10;44.50;;;;;;5051932;28;20032;-50
2021/04/25 12:23:42;;;;;;;1.67;0.77;;;12.10;44.50;;;;;;5052276;28;20024;-47
2021/04/25 12:26:09;;;;;;;1.10;0.75;;;12.00;44.60;;;;;;5051934;28;20120;-46
2021/04/25 12:28:47;;;;;;;0.70;0.40;;;11.90;44.80;;;;;;5052111;28;20385;-49
2021/04/25 12:31:15;;;;;;;3.40;0.63;;;12.00;45.10;;;;;;5059408;28;20031;-46
2021/04/25 12:33:47;;;;;;;0.90;0.68;;;12.00;44.50;;;;;;5040422;28;20033;-46
2021/04/25 12:36:14;;;;;;;2.08;0.60;;;12.00;42.60;;;;;;5068088;28;20032;-48
2021/04/25 12:38:43;;;;;;;0.77;0.50;;;12.00;43.10;;;;;;5070256;28;20032;-46
2021/04/25 12:41:10;;;;;;;2.08;0.63;;;12.00;43.60;;;;;;5070032;28;20025;-45
2021/04/25 12:43:56;;;;;;;1.73;0.70;;;12.20;43.70;;;;;;5069894;28;20219;-50
2021/04/25 12:46:29;;;;;;;2.30;0.90;;;12.50;42.70;;;;;;5069781;28;20041;-46
2021/04/25 12:49:01;;;;;;;1.23;0.75;;;12.70;41.10;;;;;;5065741;28;20278;-48
2021/04/25 12:51:31;;;;;;;4.25;0.77;;;12.80;41.80;;;;;;5079173;28;20039;-52
2021/04/25 12:53:56;;;;;;;2.08;0.77;;;12.70;41.00;;;;;;5072556;28;20107;-48
2021/04/25 12:56:29;;;;;;;1.35;0.70;;;12.70;41.40;;;;;;5069871;28;20127;-45